sensor_id;sensor_type;location;lat;lon;timestamp;P1;durP1;ratioP1;P2;durP2;ratioP2
14209;SDS011;7188;56.070;12.698;2022-10-16T00:01:07;32.50;;;21.77;;
14209;SDS011;7188;56.070;12.698;2022-10-16T00:03:39;33.03;;;21.93;;
14209;SDS011;7188;56.070;12.698;2022-10-16T00:06:05;34.10;;;21.67;;
14209;SDS011;7188;56.070;12.698;2022-10-16T00:08:31;36.13;;;21.63;;
14209;SDS011;7188;56.070;12.698;2022-10-16T00:11:03;31.70;;;23.07;;
14209;SDS011;7188;56.070;12.698;2022-10-16T00:13:36;35.17;;;22.63;;
14209;SDS011;7188;56.070;12.698;2022-10-16T00:16:04;31.47;;;21.57;;
14209;SDS011;7188;56.070;12.698;2022-10-16T00:18:30;29.90;;;20.47;;
14209;SDS011;7188;56.070;12.698;2022-10-16T00:21:01;27.03;;;19.57;;
14209;SDS011;7188;56.070;12.698;2022-10-16T00:23:31;30.00;;;19.63;;
14209;SDS011;7188;56.070;12.698;2022-10-16T00:25:58;28.23;;;19.50;;
14209;SDS011;7188;56.070;12.698;2022-10-16T00:28:26;25.30;;;18.90;;
14209;SDS011;7188;56.070;12.698;2022-10-16T00:30:52;24.60;;;18.50;;
14209;SDS011;7188;56.070;12.698;2022-10-16T00:33:18;24.23;;;17.77;;
14209;SDS011;7188;56.070;12.698;2022-10-16T00:36:02;25.63;;;17.67;;
14209;SDS011;7188;56.070;12.698;2022-10-16T00:38:29;26.80;;;17.43;;
14209;SDS011;7188;56.070;12.698;2022-10-16T00:40:55;23.60;;;16.70;;
14209;SDS011;7188;56.070;12.698;2022-10-16T00:46:02;23.10;;;16.57;;
14209;SDS011;7188;56.070;12.698;2022-10-16T00:48:29;21.57;;;16.93;;
14209;SDS011;7188;56.070;12.698;2022-10-16T00:50:56;20.87;;;15.40;;
14209;SDS011;7188;56.070;12.698;2022-10-16T00:53:23;22.50;;;15.70;;
14209;SDS011;7188;56.070;12.698;2022-10-16T00:55:50;27.07;;;16.43;;
14209;SDS011;7188;56.070;12.698;2022-10-16T00:58:16;24.00;;;16.60;;
14209;SDS011;7188;56.070;12.698;2022-10-16T01:00:41;22.33;;;17.00;;
14209;SDS011;7188;56.070;12.698;2022-10-16T01:03:24;24.10;;;17.17;;
14209;SDS011;7188;56.070;12.698;2022-10-16T01:11:45;26.83;;;16.63;;
14209;SDS011;7188;56.070;12.698;2022-10-16T01:17:15;29.33;;;17.23;;
14209;SDS011;7188;56.070;12.698;2022-10-16T01:25:54;22.93;;;16.47;;
14209;SDS011;7188;56.070;12.698;2022-10-16T01:28:32;22.83;;;16.27;;
14209;SDS011;7188;56.070;12.698;2022-10-16T01:31:03;24.87;;;16.90;;
14209;SDS011;7188;56.070;12.698;2022-10-16T01:34:03;26.97;;;17.13;;
14209;SDS011;7188;56.070;12.698;2022-10-16T01:37:14;25.77;;;15.80;;
14209;SDS011;7188;56.070;12.698;2022-10-16T01:39:34;24.67;;;16.97;;
14209;SDS011;7188;56.070;12.698;2022-10-16T01:44:34;23.97;;;15.43;;
14209;SDS011;7188;56.070;12.698;2022-10-16T01:47:01;27.00;;;17.03;;
14209;SDS011;7188;56.070;12.698;2022-10-16T01:49:31;20.20;;;15.93;;
14209;SDS011;7188;56.070;12.698;2022-10-16T01:52:01;20.50;;;14.90;;
14209;SDS011;7188;56.070;12.698;2022-10-16T01:54:30;21.53;;;15.00;;
14209;SDS011;7188;56.070;12.698;2022-10-16T01:56:58;24.37;;;16.13;;
14209;SDS011;7188;56.070;12.698;2022-10-16T01:59:25;21.53;;;15.73;;
14209;SDS011;7188;56.070;12.698;2022-10-16T02:01:54;20.87;;;15.00;;
14209;SDS011;7188;56.070;12.698;2022-10-16T02:04:28;25.20;;;15.43;;
14209;SDS011;7188;56.070;12.698;2022-10-16T02:06:57;22.57;;;14.40;;
14209;SDS011;7188;56.070;12.698;2022-10-16T02:09:24;23.97;;;14.97;;
14209;SDS011;7188;56.070;12.698;2022-10-16T02:11:50;21.43;;;14.87;;
14209;SDS011;7188;56.070;12.698;2022-10-16T02:14:19;23.13;;;15.27;;
14209;SDS011;7188;56.070;12.698;2022-10-16T02:16:45;30.93;;;16.20;;
14209;SDS011;7188;56.070;12.698;2022-10-16T02:19:14;26.77;;;15.53;;
14209;SDS011;7188;56.070;12.698;2022-10-16T02:21:43;25.47;;;16.13;;
14209;SDS011;7188;56.070;12.698;2022-10-16T02:29:25;25.87;;;16.83;;
14209;SDS011;7188;56.070;12.698;2022-10-16T02:31:58;27.83;;;16.63;;
14209;SDS011;7188;56.070;12.698;2022-10-16T02:34:28;26.97;;;16.30;;
14209;SDS011;7188;56.070;12.698;2022-10-16T02:36:56;28.67;;;17.67;;
14209;SDS011;7188;56.070;12.698;2022-10-16T02:39:23;27.83;;;16.63;;
14209;SDS011;7188;56.070;12.698;2022-10-16T02:41:49;27.30;;;17.17;;
14209;SDS011;7188;56.070;12.698;2022-10-16T02:44:15;26.63;;;16.27;;
14209;SDS011;7188;56.070;12.698;2022-10-16T02:46:41;23.63;;;16.27;;
14209;SDS011;7188;56.070;12.698;2022-10-16T02:49:06;23.70;;;16.00;;
14209;SDS011;7188;56.070;12.698;2022-10-16T02:51:32;22.60;;;15.50;;
14209;SDS011;7188;56.070;12.698;2022-10-16T02:53:57;23.73;;;14.83;;
14209;SDS011;7188;56.070;12.698;2022-10-16T02:56:23;25.40;;;15.47;;
14209;SDS011;7188;56.070;12.698;2022-10-16T02:58:49;21.90;;;13.40;;
14209;SDS011;7188;56.070;12.698;2022-10-16T03:01:14;20.60;;;14.07;;
14209;SDS011;7188;56.070;12.698;2022-10-16T03:03:41;20.63;;;14.13;;
14209;SDS011;7188;56.070;12.698;2022-10-16T03:06:07;25.97;;;14.93;;
14209;SDS011;7188;56.070;12.698;2022-10-16T03:08:35;22.00;;;13.43;;
14209;SDS011;7188;56.070;12.698;2022-10-16T03:11:00;31.30;;;14.57;;
14209;SDS011;7188;56.070;12.698;2022-10-16T03:13:26;20.30;;;13.37;;
14209;SDS011;7188;56.070;12.698;2022-10-16T03:15:51;21.27;;;12.47;;
14209;SDS011;7188;56.070;12.698;2022-10-16T03:18:17;22.63;;;13.33;;
14209;SDS011;7188;56.070;12.698;2022-10-16T03:20:43;23.67;;;13.00;;
14209;SDS011;7188;56.070;12.698;2022-10-16T03:23:08;21.00;;;13.27;;
14209;SDS011;7188;56.070;12.698;2022-10-16T03:25:35;20.57;;;12.70;;
14209;SDS011;7188;56.070;12.698;2022-10-16T03:28:00;19.27;;;12.53;;
14209;SDS011;7188;56.070;12.698;2022-10-16T03:30:26;20.87;;;11.73;;
14209;SDS011;7188;56.070;12.698;2022-10-16T03:32:52;16.67;;;11.87;;
14209;SDS011;7188;56.070;12.698;2022-10-16T03:35:23;20.60;;;12.20;;
14209;SDS011;7188;56.070;12.698;2022-10-16T03:37:49;16.70;;;11.07;;
14209;SDS011;7188;56.070;12.698;2022-10-16T03:40:16;19.03;;;12.03;;
14209;SDS011;7188;56.070;12.698;2022-10-16T03:42:42;20.07;;;11.63;;
14209;SDS011;7188;56.070;12.698;2022-10-16T03:45:08;20.17;;;12.80;;
14209;SDS011;7188;56.070;12.698;2022-10-16T03:47:36;19.83;;;12.73;;
14209;SDS011;7188;56.070;12.698;2022-10-16T03:50:02;20.47;;;12.23;;
14209;SDS011;7188;56.070;12.698;2022-10-16T03:52:28;21.50;;;11.97;;
14209;SDS011;7188;56.070;12.698;2022-10-16T03:54:54;20.33;;;14.03;;
14209;SDS011;7188;56.070;12.698;2022-10-16T03:57:20;25.47;;;15.03;;
14209;SDS011;7188;56.070;12.698;2022-10-16T03:59:46;25.60;;;13.97;;
14209;SDS011;7188;56.070;12.698;2022-10-16T04:02:11;26.53;;;15.57;;
14209;SDS011;7188;56.070;12.698;2022-10-16T04:04:37;33.77;;;16.20;;
14209;SDS011;7188;56.070;12.698;2022-10-16T04:07:03;27.77;;;16.27;;
14209;SDS011;7188;56.070;12.698;2022-10-16T04:09:29;30.27;;;16.60;;
14209;SDS011;7188;56.070;12.698;2022-10-16T04:11:54;24.23;;;15.23;;
14209;SDS011;7188;56.070;12.698;2022-10-16T04:14:20;28.40;;;15.67;;
14209;SDS011;7188;56.070;12.698;2022-10-16T04:16:45;27.47;;;15.73;;
14209;SDS011;7188;56.070;12.698;2022-10-16T04:19:11;23.80;;;13.87;;
14209;SDS011;7188;56.070;12.698;2022-10-16T04:21:37;28.10;;;15.40;;
14209;SDS011;7188;56.070;12.698;2022-10-16T04:24:03;23.17;;;13.63;;
14209;SDS011;7188;56.070;12.698;2022-10-16T04:26:29;22.87;;;13.70;;
14209;SDS011;7188;56.070;12.698;2022-10-16T04:28:55;28.13;;;13.73;;
14209;SDS011;7188;56.070;12.698;2022-10-16T04:31:20;27.43;;;14.03;;
14209;SDS011;7188;56.070;12.698;2022-10-16T04:33:46;29.03;;;14.43;;
14209;SDS011;7188;56.070;12.698;2022-10-16T04:36:12;27.93;;;14.33;;
14209;SDS011;7188;56.070;12.698;2022-10-16T04:38:38;29.13;;;14.07;;
14209;SDS011;7188;56.070;12.698;2022-10-16T04:41:05;23.00;;;13.77;;
14209;SDS011;7188;56.070;12.698;2022-10-16T04:43:31;25.13;;;13.57;;
14209;SDS011;7188;56.070;12.698;2022-10-16T04:45:57;23.83;;;13.87;;
14209;SDS011;7188;56.070;12.698;2022-10-16T04:48:23;23.30;;;12.70;;
14209;SDS011;7188;56.070;12.698;2022-10-16T04:50:48;18.13;;;12.17;;
14209;SDS011;7188;56.070;12.698;2022-10-16T04:53:14;24.00;;;12.50;;
14209;SDS011;7188;56.070;12.698;2022-10-16T04:55:40;23.93;;;12.43;;
14209;SDS011;7188;56.070;12.698;2022-10-16T04:58:06;17.40;;;11.33;;
14209;SDS011;7188;56.070;12.698;2022-10-16T05:00:32;18.90;;;11.63;;
14209;SDS011;7188;56.070;12.698;2022-10-16T05:02:57;18.33;;;12.13;;
14209;SDS011;7188;56.070;12.698;2022-10-16T05:05:25;15.53;;;11.60;;
14209;SDS011;7188;56.070;12.698;2022-10-16T05:07:51;16.97;;;11.23;;
14209;SDS011;7188;56.070;12.698;2022-10-16T05:10:17;17.57;;;12.23;;
14209;SDS011;7188;56.070;12.698;2022-10-16T05:12:42;25.17;;;12.67;;
14209;SDS011;7188;56.070;12.698;2022-10-16T05:15:08;21.13;;;13.67;;
14209;SDS011;7188;56.070;12.698;2022-10-16T05:17:34;21.90;;;12.97;;
14209;SDS011;7188;56.070;12.698;2022-10-16T05:20:00;18.37;;;11.33;;
14209;SDS011;7188;56.070;12.698;2022-10-16T05:22:25;17.97;;;11.60;;
14209;SDS011;7188;56.070;12.698;2022-10-16T05:24:51;18.67;;;11.93;;
14209;SDS011;7188;56.070;12.698;2022-10-16T05:27:17;15.53;;;10.57;;
14209;SDS011;7188;56.070;12.698;2022-10-16T05:29:45;24.73;;;12.00;;
14209;SDS011;7188;56.070;12.698;2022-10-16T05:32:12;19.87;;;10.30;;
14209;SDS011;7188;56.070;12.698;2022-10-16T05:34:39;14.47;;;9.50;;
14209;SDS011;7188;56.070;12.698;2022-10-16T05:37:04;16.77;;;9.60;;
14209;SDS011;7188;56.070;12.698;2022-10-16T05:39:30;20.03;;;10.33;;
14209;SDS011;7188;56.070;12.698;2022-10-16T05:41:55;22.87;;;10.57;;
14209;SDS011;7188;56.070;12.698;2022-10-16T05:44:21;19.07;;;9.90;;
14209;SDS011;7188;56.070;12.698;2022-10-16T05:46:47;17.63;;;9.13;;
14209;SDS011;7188;56.070;12.698;2022-10-16T05:49:12;15.90;;;9.37;;
14209;SDS011;7188;56.070;12.698;2022-10-16T05:51:38;14.70;;;8.67;;
14209;SDS011;7188;56.070;12.698;2022-10-16T05:54:04;11.70;;;7.13;;
14209;SDS011;7188;56.070;12.698;2022-10-16T05:56:29;15.20;;;6.87;;
14209;SDS011;7188;56.070;12.698;2022-10-16T05:58:55;14.97;;;6.87;;
14209;SDS011;7188;56.070;12.698;2022-10-16T06:01:20;14.97;;;6.43;;
14209;SDS011;7188;56.070;12.698;2022-10-16T06:03:49;11.40;;;6.40;;
14209;SDS011;7188;56.070;12.698;2022-10-16T06:06:16;13.43;;;6.17;;
14209;SDS011;7188;56.070;12.698;2022-10-16T06:08:46;10.77;;;5.43;;
14209;SDS011;7188;56.070;12.698;2022-10-16T06:11:14;11.60;;;6.37;;
14209;SDS011;7188;56.070;12.698;2022-10-16T06:13:41;14.27;;;5.70;;
14209;SDS011;7188;56.070;12.698;2022-10-16T06:16:07;12.60;;;5.70;;
14209;SDS011;7188;56.070;12.698;2022-10-16T06:18:34;15.57;;;7.10;;
14209;SDS011;7188;56.070;12.698;2022-10-16T06:20:59;14.93;;;6.47;;
14209;SDS011;7188;56.070;12.698;2022-10-16T06:23:45;11.40;;;7.17;;
14209;SDS011;7188;56.070;12.698;2022-10-16T06:26:12;12.30;;;7.10;;
14209;SDS011;7188;56.070;12.698;2022-10-16T06:28:39;17.40;;;7.63;;
14209;SDS011;7188;56.070;12.698;2022-10-16T06:31:06;10.23;;;7.63;;
14209;SDS011;7188;56.070;12.698;2022-10-16T06:33:33;19.30;;;8.70;;
14209;SDS011;7188;56.070;12.698;2022-10-16T06:36:02;14.90;;;8.03;;
14209;SDS011;7188;56.070;12.698;2022-10-16T06:38:39;18.47;;;9.63;;
14209;SDS011;7188;56.070;12.698;2022-10-16T06:41:06;15.50;;;9.73;;
14209;SDS011;7188;56.070;12.698;2022-10-16T06:43:33;17.77;;;10.50;;
14209;SDS011;7188;56.070;12.698;2022-10-16T06:46:02;20.90;;;10.37;;
14209;SDS011;7188;56.070;12.698;2022-10-16T06:48:28;18.47;;;9.97;;
14209;SDS011;7188;56.070;12.698;2022-10-16T06:51:04;16.97;;;10.60;;
14209;SDS011;7188;56.070;12.698;2022-10-16T06:53:32;15.90;;;9.80;;
14209;SDS011;7188;56.070;12.698;2022-10-16T06:56:09;15.57;;;9.93;;
14209;SDS011;7188;56.070;12.698;2022-10-16T06:58:39;14.50;;;8.13;;
14209;SDS011;7188;56.070;12.698;2022-10-16T07:01:05;16.57;;;9.30;;
14209;SDS011;7188;56.070;12.698;2022-10-16T07:03:31;13.27;;;7.83;;
14209;SDS011;7188;56.070;12.698;2022-10-16T07:06:01;23.87;;;9.17;;
14209;SDS011;7188;56.070;12.698;2022-10-16T07:08:30;12.73;;;7.60;;
14209;SDS011;7188;56.070;12.698;2022-10-16T07:11:03;14.57;;;8.13;;
14209;SDS011;7188;56.070;12.698;2022-10-16T07:13:32;14.27;;;7.10;;
14209;SDS011;7188;56.070;12.698;2022-10-16T07:16:03;10.00;;;7.10;;
14209;SDS011;7188;56.070;12.698;2022-10-16T07:18:34;16.03;;;7.40;;
14209;SDS011;7188;56.070;12.698;2022-10-16T07:21:08;17.43;;;7.10;;
14209;SDS011;7188;56.070;12.698;2022-10-16T07:23:35;12.07;;;7.23;;
14209;SDS011;7188;56.070;12.698;2022-10-16T07:26:01;14.80;;;7.17;;
14209;SDS011;7188;56.070;12.698;2022-10-16T07:28:27;11.07;;;6.23;;
14209;SDS011;7188;56.070;12.698;2022-10-16T07:30:53;10.30;;;5.93;;
14209;SDS011;7188;56.070;12.698;2022-10-16T07:33:19;15.43;;;6.70;;
14209;SDS011;7188;56.070;12.698;2022-10-16T07:35:51;17.53;;;6.50;;
14209;SDS011;7188;56.070;12.698;2022-10-16T07:38:18;13.60;;;6.67;;
14209;SDS011;7188;56.070;12.698;2022-10-16T07:40:44;17.43;;;6.17;;
14209;SDS011;7188;56.070;12.698;2022-10-16T07:43:10;9.63;;;5.90;;
14209;SDS011;7188;56.070;12.698;2022-10-16T07:45:36;12.33;;;5.50;;
14209;SDS011;7188;56.070;12.698;2022-10-16T07:48:01;11.83;;;5.80;;
14209;SDS011;7188;56.070;12.698;2022-10-16T07:50:27;9.70;;;5.33;;
14209;SDS011;7188;56.070;12.698;2022-10-16T07:52:53;15.10;;;5.97;;
14209;SDS011;7188;56.070;12.698;2022-10-16T07:55:18;13.07;;;5.70;;
14209;SDS011;7188;56.070;12.698;2022-10-16T07:57:44;11.60;;;6.03;;
14209;SDS011;7188;56.070;12.698;2022-10-16T08:00:09;9.00;;;5.27;;
14209;SDS011;7188;56.070;12.698;2022-10-16T08:02:39;14.30;;;5.37;;
14209;SDS011;7188;56.070;12.698;2022-10-16T08:05:05;8.73;;;5.40;;
14209;SDS011;7188;56.070;12.698;2022-10-16T08:07:31;14.00;;;6.10;;
14209;SDS011;7188;56.070;12.698;2022-10-16T08:09:57;7.20;;;4.83;;
14209;SDS011;7188;56.070;12.698;2022-10-16T08:12:23;12.80;;;4.97;;
14209;SDS011;7188;56.070;12.698;2022-10-16T08:14:50;10.60;;;5.00;;
14209;SDS011;7188;56.070;12.698;2022-10-16T08:17:15;8.00;;;4.60;;
14209;SDS011;7188;56.070;12.698;2022-10-16T08:19:47;10.47;;;5.27;;
14209;SDS011;7188;56.070;12.698;2022-10-16T08:22:13;9.23;;;3.90;;
14209;SDS011;7188;56.070;12.698;2022-10-16T08:24:40;9.27;;;4.20;;
14209;SDS011;7188;56.070;12.698;2022-10-16T08:27:06;8.47;;;4.10;;
14209;SDS011;7188;56.070;12.698;2022-10-16T08:29:33;8.67;;;4.20;;
14209;SDS011;7188;56.070;12.698;2022-10-16T08:31:59;10.93;;;4.20;;
14209;SDS011;7188;56.070;12.698;2022-10-16T08:34:25;11.33;;;4.43;;
14209;SDS011;7188;56.070;12.698;2022-10-16T08:36:52;14.80;;;3.67;;
14209;SDS011;7188;56.070;12.698;2022-10-16T08:39:18;7.47;;;4.07;;
14209;SDS011;7188;56.070;12.698;2022-10-16T08:41:57;7.83;;;3.70;;
14209;SDS011;7188;56.070;12.698;2022-10-16T08:44:55;8.17;;;3.37;;
14209;SDS011;7188;56.070;12.698;2022-10-16T08:50:37;4.63;;;2.70;;
14209;SDS011;7188;56.070;12.698;2022-10-16T08:53:04;5.87;;;2.73;;
14209;SDS011;7188;56.070;12.698;2022-10-16T08:58:48;7.37;;;2.57;;
14209;SDS011;7188;56.070;12.698;2022-10-16T09:00:59;7.17;;;2.90;;
14209;SDS011;7188;56.070;12.698;2022-10-16T09:11:19;8.37;;;2.37;;
14209;SDS011;7188;56.070;12.698;2022-10-16T09:16:36;8.20;;;2.30;;
14209;SDS011;7188;56.070;12.698;2022-10-16T09:19:23;7.07;;;1.93;;
14209;SDS011;7188;56.070;12.698;2022-10-16T09:21:54;5.97;;;1.90;;
14209;SDS011;7188;56.070;12.698;2022-10-16T09:24:21;3.57;;;1.40;;
14209;SDS011;7188;56.070;12.698;2022-10-16T09:26:51;8.60;;;2.20;;
14209;SDS011;7188;56.070;12.698;2022-10-16T09:29:17;5.57;;;2.13;;
14209;SDS011;7188;56.070;12.698;2022-10-16T09:31:45;9.27;;;2.53;;
14209;SDS011;7188;56.070;12.698;2022-10-16T09:34:20;7.80;;;2.10;;
14209;SDS011;7188;56.070;12.698;2022-10-16T09:36:55;4.37;;;2.03;;
14209;SDS011;7188;56.070;12.698;2022-10-16T09:39:23;4.80;;;2.00;;
14209;SDS011;7188;56.070;12.698;2022-10-16T09:41:49;5.27;;;1.83;;
14209;SDS011;7188;56.070;12.698;2022-10-16T09:44:21;5.83;;;1.33;;
14209;SDS011;7188;56.070;12.698;2022-10-16T09:47:13;5.77;;;1.50;;
14209;SDS011;7188;56.070;12.698;2022-10-16T09:49:52;3.87;;;1.53;;
14209;SDS011;7188;56.070;12.698;2022-10-16T09:52:30;5.23;;;1.87;;
14209;SDS011;7188;56.070;12.698;2022-10-16T09:54:57;2.70;;;1.10;;
14209;SDS011;7188;56.070;12.698;2022-10-16T09:57:24;3.03;;;1.37;;
14209;SDS011;7188;56.070;12.698;2022-10-16T10:02:18;4.97;;;1.30;;
14209;SDS011;7188;56.070;12.698;2022-10-16T10:04:51;4.33;;;1.23;;
14209;SDS011;7188;56.070;12.698;2022-10-16T10:07:42;5.43;;;0.90;;
14209;SDS011;7188;56.070;12.698;2022-10-16T10:10:21;5.13;;;1.20;;
14209;SDS011;7188;56.070;12.698;2022-10-16T10:12:51;8.60;;;1.67;;
14209;SDS011;7188;56.070;12.698;2022-10-16T10:15:18;3.77;;;0.90;;
14209;SDS011;7188;56.070;12.698;2022-10-16T10:17:50;2.17;;;1.03;;
14209;SDS011;7188;56.070;12.698;2022-10-16T10:23:13;5.60;;;1.00;;
14209;SDS011;7188;56.070;12.698;2022-10-16T10:36:39;2.20;;;0.73;;
14209;SDS011;7188;56.070;12.698;2022-10-16T10:47:18;3.40;;;0.70;;
14209;SDS011;7188;56.070;12.698;2022-10-16T10:49:57;3.37;;;0.73;;
14209;SDS011;7188;56.070;12.698;2022-10-16T11:07:27;6.17;;;1.20;;
14209;SDS011;7188;56.070;12.698;2022-10-16T11:10:42;8.53;;;0.83;;
14209;SDS011;7188;56.070;12.698;2022-10-16T11:12:58;3.43;;;0.80;;
14209;SDS011;7188;56.070;12.698;2022-10-16T11:15:41;8.43;;;1.00;;
14209;SDS011;7188;56.070;12.698;2022-10-16T11:18:13;4.37;;;0.77;;
14209;SDS011;7188;56.070;12.698;2022-10-16T11:21:04;7.30;;;1.20;;
14209;SDS011;7188;56.070;12.698;2022-10-16T11:23:47;7.47;;;1.17;;
14209;SDS011;7188;56.070;12.698;2022-10-16T11:26:25;6.97;;;0.80;;
14209;SDS011;7188;56.070;12.698;2022-10-16T11:28:54;4.93;;;1.00;;
14209;SDS011;7188;56.070;12.698;2022-10-16T11:32:05;4.17;;;0.93;;
14209;SDS011;7188;56.070;12.698;2022-10-16T11:34:32;4.37;;;1.13;;
14209;SDS011;7188;56.070;12.698;2022-10-16T11:37:30;6.33;;;1.00;;
14209;SDS011;7188;56.070;12.698;2022-10-16T11:40:11;9.67;;;1.23;;
14209;SDS011;7188;56.070;12.698;2022-10-16T11:42:46;6.07;;;0.93;;
14209;SDS011;7188;56.070;12.698;2022-10-16T11:48:18;6.67;;;1.50;;
14209;SDS011;7188;56.070;12.698;2022-10-16T11:53:55;3.50;;;0.80;;
14209;SDS011;7188;56.070;12.698;2022-10-16T11:56:27;6.53;;;0.90;;
14209;SDS011;7188;56.070;12.698;2022-10-16T11:59:02;4.33;;;1.13;;
14209;SDS011;7188;56.070;12.698;2022-10-16T12:02:25;8.77;;;0.97;;
14209;SDS011;7188;56.070;12.698;2022-10-16T12:04:44;6.40;;;1.03;;
14209;SDS011;7188;56.070;12.698;2022-10-16T12:07:17;4.27;;;1.40;;
14209;SDS011;7188;56.070;12.698;2022-10-16T12:09:47;7.50;;;0.90;;
14209;SDS011;7188;56.070;12.698;2022-10-16T12:15:27;6.50;;;1.10;;
14209;SDS011;7188;56.070;12.698;2022-10-16T12:17:54;3.70;;;0.90;;
14209;SDS011;7188;56.070;12.698;2022-10-16T12:20:22;4.90;;;0.87;;
14209;SDS011;7188;56.070;12.698;2022-10-16T12:22:56;5.20;;;1.10;;
14209;SDS011;7188;56.070;12.698;2022-10-16T12:28:03;7.27;;;1.17;;
14209;SDS011;7188;56.070;12.698;2022-10-16T12:30:35;6.63;;;0.90;;
14209;SDS011;7188;56.070;12.698;2022-10-16T12:33:03;6.10;;;1.10;;
14209;SDS011;7188;56.070;12.698;2022-10-16T12:35:34;8.20;;;1.27;;
14209;SDS011;7188;56.070;12.698;2022-10-16T12:38:24;7.80;;;1.00;;
14209;SDS011;7188;56.070;12.698;2022-10-16T12:48:33;7.03;;;0.90;;
14209;SDS011;7188;56.070;12.698;2022-10-16T12:51:22;6.20;;;1.00;;
14209;SDS011;7188;56.070;12.698;2022-10-16T12:53:58;4.30;;;0.80;;
14209;SDS011;7188;56.070;12.698;2022-10-16T12:59:36;3.43;;;0.93;;
14209;SDS011;7188;56.070;12.698;2022-10-16T13:13:54;25.07;;;3.00;;
14209;SDS011;7188;56.070;12.698;2022-10-16T13:19:46;10.40;;;1.40;;
14209;SDS011;7188;56.070;12.698;2022-10-16T13:22:24;8.30;;;0.97;;
14209;SDS011;7188;56.070;12.698;2022-10-16T13:25:02;6.63;;;1.30;;
14209;SDS011;7188;56.070;12.698;2022-10-16T13:27:52;10.60;;;1.13;;
14209;SDS011;7188;56.070;12.698;2022-10-16T13:30:31;6.63;;;1.23;;
14209;SDS011;7188;56.070;12.698;2022-10-16T13:35:56;7.33;;;1.10;;
14209;SDS011;7188;56.070;12.698;2022-10-16T13:38:27;3.73;;;0.60;;
14209;SDS011;7188;56.070;12.698;2022-10-16T13:43:39;4.67;;;1.17;;
14209;SDS011;7188;56.070;12.698;2022-10-16T13:46:19;6.50;;;0.93;;
14209;SDS011;7188;56.070;12.698;2022-10-16T13:49:02;7.00;;;0.93;;
14209;SDS011;7188;56.070;12.698;2022-10-16T13:51:30;3.77;;;0.90;;
14209;SDS011;7188;56.070;12.698;2022-10-16T13:53:57;5.90;;;0.93;;
14209;SDS011;7188;56.070;12.698;2022-10-16T13:56:27;5.47;;;1.00;;
14209;SDS011;7188;56.070;12.698;2022-10-16T13:59:02;9.20;;;1.30;;
14209;SDS011;7188;56.070;12.698;2022-10-16T14:01:46;6.47;;;1.23;;
14209;SDS011;7188;56.070;12.698;2022-10-16T14:04:12;7.30;;;1.37;;
14209;SDS011;7188;56.070;12.698;2022-10-16T14:06:46;9.57;;;1.83;;
14209;SDS011;7188;56.070;12.698;2022-10-16T14:09:22;7.90;;;1.87;;
14209;SDS011;7188;56.070;12.698;2022-10-16T14:11:50;8.23;;;1.07;;
14209;SDS011;7188;56.070;12.698;2022-10-16T14:14:43;11.43;;;1.73;;
14209;SDS011;7188;56.070;12.698;2022-10-16T14:19:54;9.80;;;1.27;;
14209;SDS011;7188;56.070;12.698;2022-10-16T14:28:13;13.47;;;1.67;;
14209;SDS011;7188;56.070;12.698;2022-10-16T14:30:49;13.27;;;2.43;;
14209;SDS011;7188;56.070;12.698;2022-10-16T14:33:39;9.67;;;1.03;;
14209;SDS011;7188;56.070;12.698;2022-10-16T14:38:54;13.50;;;2.43;;
14209;SDS011;7188;56.070;12.698;2022-10-16T14:41:30;13.03;;;2.13;;
14209;SDS011;7188;56.070;12.698;2022-10-16T14:44:00;8.53;;;1.80;;
14209;SDS011;7188;56.070;12.698;2022-10-16T14:46:34;10.20;;;1.43;;
14209;SDS011;7188;56.070;12.698;2022-10-16T14:49:13;10.67;;;2.13;;
14209;SDS011;7188;56.070;12.698;2022-10-16T14:51:42;16.37;;;2.33;;
14209;SDS011;7188;56.070;12.698;2022-10-16T14:54:10;8.80;;;2.17;;
14209;SDS011;7188;56.070;12.698;2022-10-16T14:59:27;11.20;;;2.00;;
14209;SDS011;7188;56.070;12.698;2022-10-16T15:04:45;12.87;;;2.40;;
14209;SDS011;7188;56.070;12.698;2022-10-16T15:07:10;11.20;;;2.00;;
14209;SDS011;7188;56.070;12.698;2022-10-16T15:09:36;22.07;;;2.40;;
14209;SDS011;7188;56.070;12.698;2022-10-16T15:12:01;13.57;;;2.10;;
14209;SDS011;7188;56.070;12.698;2022-10-16T15:14:27;14.27;;;2.53;;
14209;SDS011;7188;56.070;12.698;2022-10-16T15:16:53;13.43;;;2.40;;
14209;SDS011;7188;56.070;12.698;2022-10-16T15:19:18;19.43;;;2.53;;
14209;SDS011;7188;56.070;12.698;2022-10-16T15:21:44;17.53;;;2.37;;
14209;SDS011;7188;56.070;12.698;2022-10-16T15:24:13;14.20;;;2.27;;
14209;SDS011;7188;56.070;12.698;2022-10-16T15:26:39;16.37;;;2.57;;
14209;SDS011;7188;56.070;12.698;2022-10-16T15:29:05;13.40;;;2.73;;
14209;SDS011;7188;56.070;12.698;2022-10-16T15:31:31;26.50;;;3.03;;
14209;SDS011;7188;56.070;12.698;2022-10-16T15:33:56;15.37;;;2.00;;
14209;SDS011;7188;56.070;12.698;2022-10-16T15:36:32;12.47;;;2.50;;
14209;SDS011;7188;56.070;12.698;2022-10-16T15:39:02;12.90;;;2.57;;
14209;SDS011;7188;56.070;12.698;2022-10-16T15:41:37;21.17;;;2.60;;
14209;SDS011;7188;56.070;12.698;2022-10-16T15:44:02;11.50;;;2.43;;
14209;SDS011;7188;56.070;12.698;2022-10-16T15:46:28;14.57;;;2.20;;
14209;SDS011;7188;56.070;12.698;2022-10-16T15:48:56;21.23;;;2.93;;
14209;SDS011;7188;56.070;12.698;2022-10-16T15:51:23;15.70;;;2.33;;
14209;SDS011;7188;56.070;12.698;2022-10-16T15:53:52;16.23;;;2.57;;
14209;SDS011;7188;56.070;12.698;2022-10-16T15:56:18;15.57;;;3.47;;
14209;SDS011;7188;56.070;12.698;2022-10-16T15:58:44;16.27;;;3.00;;
14209;SDS011;7188;56.070;12.698;2022-10-16T16:01:10;14.77;;;3.13;;
14209;SDS011;7188;56.070;12.698;2022-10-16T16:03:37;12.07;;;2.60;;
14209;SDS011;7188;56.070;12.698;2022-10-16T16:06:06;17.37;;;2.80;;
14209;SDS011;7188;56.070;12.698;2022-10-16T16:08:33;19.80;;;2.80;;
14209;SDS011;7188;56.070;12.698;2022-10-16T16:10:59;12.40;;;2.67;;
14209;SDS011;7188;56.070;12.698;2022-10-16T16:13:27;14.93;;;2.67;;
14209;SDS011;7188;56.070;12.698;2022-10-16T16:15:53;17.43;;;2.97;;
14209;SDS011;7188;56.070;12.698;2022-10-16T16:18:19;18.07;;;3.03;;
14209;SDS011;7188;56.070;12.698;2022-10-16T16:20:45;19.17;;;2.77;;
14209;SDS011;7188;56.070;12.698;2022-10-16T16:23:10;17.23;;;2.43;;
14209;SDS011;7188;56.070;12.698;2022-10-16T16:28:40;16.27;;;2.73;;
14209;SDS011;7188;56.070;12.698;2022-10-16T16:31:07;20.67;;;3.27;;
14209;SDS011;7188;56.070;12.698;2022-10-16T16:33:33;18.43;;;3.23;;
14209;SDS011;7188;56.070;12.698;2022-10-16T16:35:59;14.00;;;2.63;;
14209;SDS011;7188;56.070;12.698;2022-10-16T16:38:31;15.93;;;3.20;;
14209;SDS011;7188;56.070;12.698;2022-10-16T16:40:58;13.57;;;2.83;;
14209;SDS011;7188;56.070;12.698;2022-10-16T16:43:24;16.27;;;3.13;;
14209;SDS011;7188;56.070;12.698;2022-10-16T16:45:51;14.07;;;2.80;;
14209;SDS011;7188;56.070;12.698;2022-10-16T16:48:17;15.10;;;2.77;;
14209;SDS011;7188;56.070;12.698;2022-10-16T16:50:43;14.13;;;2.70;;
14209;SDS011;7188;56.070;12.698;2022-10-16T16:53:09;15.97;;;2.97;;
14209;SDS011;7188;56.070;12.698;2022-10-16T16:55:47;17.23;;;2.70;;
14209;SDS011;7188;56.070;12.698;2022-10-16T16:58:12;12.53;;;2.77;;
14209;SDS011;7188;56.070;12.698;2022-10-16T17:00:44;9.53;;;1.70;;
14209;SDS011;7188;56.070;12.698;2022-10-16T17:03:10;13.00;;;2.37;;
14209;SDS011;7188;56.070;12.698;2022-10-16T17:05:36;12.30;;;2.03;;
14209;SDS011;7188;56.070;12.698;2022-10-16T17:08:02;13.13;;;2.57;;
14209;SDS011;7188;56.070;12.698;2022-10-16T17:10:27;17.23;;;2.87;;
14209;SDS011;7188;56.070;12.698;2022-10-16T17:12:53;14.73;;;2.90;;